createdAt,value
2022-09-28T00:01:57.221Z,20.03
2022-09-28T00:04:25.527Z,19.97
2022-09-28T00:06:53.767Z,19.91
2022-09-28T00:09:21.906Z,19.90
2022-09-28T00:11:50.006Z,19.82
2022-09-28T00:14:18.498Z,20.10
2022-09-28T00:16:46.769Z,20.04
2022-09-28T00:19:15.045Z,19.91
2022-09-28T00:21:43.608Z,19.89
2022-09-28T00:24:16.072Z,19.95
2022-09-28T00:26:47.120Z,19.67
2022-09-28T00:29:27.406Z,19.69
2022-09-28T00:32:03.225Z,19.45
2022-09-28T00:34:35.237Z,19.48
2022-09-28T00:37:05.849Z,19.34
2022-09-28T00:39:35.928Z,19.13
2022-09-28T00:42:11.503Z,19.10
2022-09-28T00:44:52.734Z,19.29
2022-09-28T00:47:24.094Z,19.23
2022-09-28T00:50:12.821Z,19.18
2022-09-28T00:52:54.733Z,19.48
2022-09-28T00:55:43.295Z,19.37
2022-09-28T00:58:18.175Z,19.17
2022-09-28T01:00:46.358Z,18.87
2022-09-28T01:03:16.807Z,18.67
2022-09-28T01:05:47.266Z,18.22
2022-09-28T01:08:17.964Z,18.24
2022-09-28T01:10:46.097Z,18.13
2022-09-28T01:13:16.574Z,18.33
2022-09-28T01:16:13.600Z,17.92
2022-09-28T01:19:21.490Z,18.00
2022-09-28T01:22:15.493Z,18.22
2022-09-28T01:24:46.814Z,18.05
2022-09-28T01:27:30.483Z,17.81
2022-09-28T01:30:04.478Z,18.17
2022-09-28T01:32:47.795Z,18.36
2022-09-28T01:35:41.282Z,18.36
2022-09-28T01:38:44.865Z,18.26
2022-09-28T01:41:14.304Z,18.31
2022-09-28T01:43:48.142Z,18.40
2022-09-28T01:46:21.821Z,18.52
2022-09-28T01:48:55.929Z,18.66
2022-09-28T01:51:34.813Z,18.66
2022-09-28T01:54:12.482Z,18.51
2022-09-28T01:56:54.842Z,18.91
2022-09-28T01:59:31.581Z,18.83
2022-09-28T02:02:13.075Z,18.88
2022-09-28T02:04:52.244Z,19.03
2022-09-28T02:07:32.832Z,19.08
2022-09-28T02:10:07.672Z,18.83
2022-09-28T02:12:41.941Z,18.76
2022-09-28T02:15:33.814Z,18.82
2022-09-28T02:18:02.501Z,18.69
2022-09-28T02:20:33.582Z,18.69
2022-09-28T02:23:05.426Z,18.84
2022-09-28T02:26:00.923Z,18.92
2022-09-28T02:28:30.772Z,18.78
2022-09-28T02:30:59.143Z,19.00
2022-09-28T02:33:40.902Z,18.66
2022-09-28T02:36:09.912Z,18.57
2022-09-28T02:38:39.863Z,18.72
2022-09-28T02:41:20.149Z,18.55
2022-09-28T02:43:58.299Z,18.44
2022-09-28T02:47:06.012Z,18.55
2022-09-28T02:50:02.105Z,18.38
2022-09-28T02:53:11.063Z,18.42
2022-09-28T02:55:51.261Z,18.41
2022-09-28T02:58:34.041Z,18.43
2022-09-28T03:01:33.177Z,18.33
2022-09-28T03:04:42.323Z,18.32
2022-09-28T03:07:33.092Z,18.53
2022-09-28T03:10:31.335Z,18.61
2022-09-28T03:13:01.032Z,18.59
2022-09-28T03:15:32.403Z,18.55
2022-09-28T03:18:20.364Z,18.49
2022-09-28T03:20:50.415Z,18.55
2022-09-28T03:23:25.664Z,18.48
2022-09-28T03:25:55.171Z,18.51
2022-09-28T03:28:23.956Z,18.65
2022-09-28T03:30:52.226Z,18.63
2022-09-28T03:33:22.074Z,18.53
2022-09-28T03:35:50.844Z,18.59
2022-09-28T03:38:21.055Z,18.51
2022-09-28T03:41:08.183Z,18.58
2022-09-28T03:43:38.767Z,18.49
2022-09-28T03:46:07.229Z,18.55
2022-09-28T03:48:40.695Z,18.34
2022-09-28T03:51:12.603Z,18.45
2022-09-28T03:53:41.192Z,18.30
2022-09-28T03:56:15.027Z,18.31
2022-09-28T03:58:43.496Z,18.41
2022-09-28T04:01:17.522Z,18.41
2022-09-28T04:03:55.563Z,18.13
2022-09-28T04:06:24.843Z,18.35
2022-09-28T04:08:53.687Z,18.05
2022-09-28T04:11:21.692Z,18.34
2022-09-28T04:13:50.545Z,18.06
2022-09-28T04:16:19.675Z,18.03
2022-09-28T04:18:59.214Z,17.95
2022-09-28T04:21:48.444Z,18.36
2022-09-28T04:24:16.644Z,18.48
2022-09-28T04:26:44.698Z,18.72
2022-09-28T04:29:16.999Z,18.34
2022-09-28T04:31:55.800Z,18.47
2022-09-28T04:34:39.684Z,18.29
2022-09-28T04:37:11.953Z,18.10
2022-09-28T04:39:44.022Z,18.23
2022-09-28T04:42:18.199Z,18.20
2022-09-28T04:44:47.802Z,18.13
2022-09-28T04:47:15.935Z,18.14
2022-09-28T04:49:47.241Z,18.10
2022-09-28T04:52:38.103Z,18.08
2022-09-28T04:55:07.254Z,18.26
2022-09-28T04:57:36.555Z,18.27
2022-09-28T05:00:05.978Z,18.20
2022-09-28T05:02:37.033Z,18.12
2022-09-28T05:05:23.713Z,18.06
2022-09-28T05:08:18.804Z,18.31
2022-09-28T05:10:47.733Z,18.21
2022-09-28T05:13:19.174Z,18.46
2022-09-28T05:15:47.633Z,18.72
2022-09-28T05:18:15.944Z,18.77
2022-09-28T05:20:52.497Z,18.63
2022-09-28T05:23:21.104Z,18.73
2022-09-28T05:25:49.387Z,18.88
2022-09-28T05:28:30.333Z,18.83
2022-09-28T05:31:21.331Z,18.93
2022-09-28T05:34:05.467Z,19.12
2022-09-28T05:36:33.624Z,18.78
2022-09-28T05:39:03.964Z,18.95
2022-09-28T05:41:33.143Z,18.95
2022-09-28T05:44:02.097Z,18.80
2022-09-28T05:46:31.657Z,18.91
2022-09-28T05:49:02.083Z,18.88
2022-09-28T05:51:30.103Z,18.96
2022-09-28T05:54:04.611Z,19.06
2022-09-28T05:56:35.083Z,18.93
2022-09-28T05:59:06.452Z,19.02
2022-09-28T06:01:34.713Z,19.02
2022-09-28T06:04:04.247Z,19.23
2022-09-28T06:06:34.737Z,19.14
2022-09-28T06:09:28.310Z,19.18
2022-09-28T06:12:08.160Z,19.09
2022-09-28T06:14:42.750Z,19.28
2022-09-28T06:17:12.756Z,19.22
2022-09-28T06:19:40.907Z,19.51
2022-09-28T06:22:25.360Z,19.51
2022-09-28T06:25:01.317Z,19.54
2022-09-28T06:27:30.193Z,19.34
2022-09-28T06:30:00.821Z,19.44
2022-09-28T06:32:30.048Z,19.50
2022-09-28T06:34:59.069Z,19.72
2022-09-28T06:37:29.257Z,19.77
2022-09-28T06:39:58.248Z,19.74
2022-09-28T06:42:26.788Z,19.71
2022-09-28T06:45:25.695Z,19.96
2022-09-28T06:48:15.367Z,19.79
2022-09-28T06:50:44.128Z,20.00
2022-09-28T06:53:24.547Z,19.77
2022-09-28T06:56:21.417Z,19.78
2022-09-28T06:58:49.777Z,19.80
2022-09-28T07:01:18.523Z,19.83
2022-09-28T07:04:07.086Z,19.85
2022-09-28T07:06:54.678Z,19.87
2022-09-28T07:09:50.246Z,19.96
2022-09-28T07:12:44.710Z,20.11
2022-09-28T07:15:32.791Z,20.26
2022-09-28T07:18:23.587Z,20.28
2022-09-28T07:20:54.699Z,20.36
2022-09-28T07:23:23.707Z,20.56
2022-09-28T07:26:19.722Z,20.64
2022-09-28T07:29:14.873Z,20.61
2022-09-28T07:32:03.627Z,20.69
2022-09-28T07:34:31.790Z,20.88
2022-09-28T07:37:07.492Z,21.19
2022-09-28T07:39:55.597Z,21.21
2022-09-28T07:42:25.187Z,21.19
2022-09-28T07:44:53.307Z,21.19
2022-09-28T07:47:30.889Z,21.25
2022-09-28T07:50:34.970Z,21.17
2022-09-28T07:53:28.978Z,21.25
2022-09-28T07:56:24.073Z,21.63
2022-09-28T07:59:04.540Z,21.60
2022-09-28T08:01:51.599Z,21.73
2022-09-28T08:04:21.150Z,21.82
2022-09-28T08:06:49.238Z,21.52
2022-09-28T08:09:17.607Z,21.73
2022-09-28T08:12:05.668Z,21.71
2022-09-28T08:14:53.407Z,21.50
2022-09-28T08:17:48.651Z,21.62
2022-09-28T08:20:38.107Z,21.84
2022-09-28T08:23:09.100Z,22.19
2022-09-28T08:25:39.088Z,22.33
2022-09-28T08:28:09.750Z,22.30
2022-09-28T08:30:46.649Z,22.32
2022-09-28T08:33:33.961Z,22.35
2022-09-28T08:36:21.399Z,22.25
2022-09-28T08:39:08.512Z,22.25
2022-09-28T08:42:41.249Z,22.68
2022-09-28T08:45:27.890Z,22.96
2022-09-28T08:48:49.022Z,23.00
2022-09-28T08:52:12.027Z,23.42
2022-09-28T08:55:15.648Z,24.17
2022-09-28T08:57:58.788Z,24.09
2022-09-28T09:00:43.356Z,23.24
2022-09-28T09:03:19.286Z,23.82
2022-09-28T09:06:18.448Z,24.05
2022-09-28T09:09:17.827Z,24.02
2022-09-28T09:12:24.692Z,24.31
2022-09-28T09:15:34.177Z,24.77
2022-09-28T09:18:20.033Z,24.38
2022-09-28T09:21:16.169Z,24.72
2022-09-28T09:23:57.296Z,25.23
2022-09-28T09:26:41.248Z,25.51
2022-09-28T09:29:53.009Z,24.77
2022-09-28T09:32:47.858Z,25.05
2022-09-28T09:35:34.292Z,24.52
2022-09-28T09:39:00.360Z,24.99
2022-09-28T09:42:16.457Z,25.25
2022-09-28T09:45:28.938Z,25.31
2022-09-28T09:48:22.255Z,25.35
2022-09-28T09:51:00.065Z,25.05
2022-09-28T09:53:39.027Z,24.42
2022-09-28T09:56:53.058Z,25.09
2022-09-28T09:59:42.477Z,24.28
2022-09-28T10:02:30.878Z,24.94
2022-09-28T10:05:24.738Z,25.05
2022-09-28T10:08:08.557Z,25.16
2022-09-28T10:10:44.760Z,25.22
2022-09-28T10:13:15.086Z,25.56
2022-09-28T10:15:47.987Z,25.85
2022-09-28T10:18:25.002Z,25.17
2022-09-28T10:21:16.561Z,25.43
2022-09-28T10:24:04.737Z,25.00
2022-09-28T10:26:42.066Z,25.39
2022-09-28T10:29:22.463Z,26.06
2022-09-28T10:31:52.721Z,25.40
2022-09-28T10:34:28.956Z,26.42
2022-09-28T10:37:10.067Z,26.95
2022-09-28T10:40:01.877Z,27.29
2022-09-28T10:42:36.434Z,27.22
2022-09-28T10:45:20.737Z,27.12
2022-09-28T10:47:49.864Z,27.32
2022-09-28T10:50:25.927Z,27.93
2022-09-28T10:53:19.920Z,27.89
2022-09-28T10:56:20.230Z,28.23
2022-09-28T10:58:52.366Z,26.80
2022-09-28T11:01:33.988Z,27.31
2022-09-28T11:04:07.017Z,27.77
2022-09-28T11:06:39.189Z,27.91
2022-09-28T11:09:41.585Z,27.56
2022-09-28T11:12:16.277Z,26.43
2022-09-28T11:14:44.938Z,27.10
2022-09-28T11:17:40.737Z,27.70
2022-09-28T11:20:28.204Z,27.62
2022-09-28T11:23:19.268Z,27.96
2022-09-28T11:26:10.609Z,26.30
2022-09-28T11:28:43.427Z,26.12
2022-09-28T11:31:29.236Z,26.27
2022-09-28T11:34:16.788Z,27.56
2022-09-28T11:37:09.647Z,27.22
2022-09-28T11:40:06.906Z,27.55
2022-09-28T11:42:58.771Z,28.19
2022-09-28T11:45:41.586Z,28.79
2022-09-28T11:48:15.960Z,28.72
2022-09-28T11:50:54.588Z,28.33
2022-09-28T11:53:40.617Z,27.58
2022-09-28T11:56:50.857Z,28.51
2022-09-28T11:59:32.606Z,28.86
2022-09-28T12:02:18.396Z,28.34
2022-09-28T12:05:03.256Z,29.09
2022-09-28T12:07:38.836Z,29.19
2022-09-28T12:10:28.503Z,29.74
2022-09-28T12:13:02.657Z,29.97
2022-09-28T12:16:20.018Z,29.63
2022-09-28T12:18:50.835Z,30.68
2022-09-28T12:21:25.690Z,30.66
2022-09-28T12:23:59.530Z,31.23
2022-09-28T12:26:47.821Z,31.07
2022-09-28T12:29:23.310Z,30.68
2022-09-28T12:31:57.644Z,30.67
2022-09-28T12:34:26.178Z,28.30
2022-09-28T12:37:09.496Z,29.52
2022-09-28T12:40:16.104Z,29.33
2022-09-28T12:42:53.369Z,29.11
2022-09-28T12:45:43.045Z,27.90
2022-09-28T12:48:21.597Z,27.43
2022-09-28T12:50:56.965Z,26.78
2022-09-28T12:53:47.498Z,27.69
2022-09-28T12:56:34.856Z,27.72
2022-09-28T12:59:12.151Z,27.77
2022-09-28T13:01:49.492Z,27.39
2022-09-28T13:05:03.006Z,27.62
2022-09-28T13:08:09.447Z,27.59
2022-09-28T13:11:05.462Z,27.36
2022-09-28T13:13:45.627Z,27.23
2022-09-28T13:16:48.536Z,27.46
2022-09-28T13:19:40.831Z,26.90
2022-09-28T13:22:24.219Z,26.83
2022-09-28T13:24:55.266Z,27.07
2022-09-28T13:27:32.688Z,26.83
2022-09-28T13:30:03.574Z,26.50
2022-09-28T13:32:33.832Z,26.56
2022-09-28T13:35:02.743Z,26.99
2022-09-28T13:37:31.106Z,27.03
2022-09-28T13:40:00.252Z,27.14
2022-09-28T13:42:46.603Z,26.68
2022-09-28T13:45:20.807Z,26.98
2022-09-28T13:48:05.947Z,26.53
2022-09-28T13:50:52.286Z,26.74
2022-09-28T13:53:26.266Z,26.85
2022-09-28T13:56:27.547Z,26.78
2022-09-28T13:59:14.195Z,26.87
2022-09-28T14:01:56.067Z,26.94
2022-09-28T14:04:56.456Z,26.96
2022-09-28T14:07:44.428Z,26.99
2022-09-28T14:10:44.700Z,27.22
2022-09-28T14:13:13.106Z,26.90
2022-09-28T14:15:45.399Z,27.08
2022-09-28T14:18:25.666Z,27.19
2022-09-28T14:21:46.188Z,27.43
2022-09-28T14:24:23.417Z,28.03
2022-09-28T14:27:11.981Z,27.28
2022-09-28T14:29:41.577Z,27.18
2022-09-28T14:32:09.768Z,27.39
2022-09-28T14:34:45.068Z,27.20
2022-09-28T14:37:51.657Z,26.92
2022-09-28T14:40:40.314Z,26.60
2022-09-28T14:43:38.037Z,26.66
2022-09-28T14:46:12.097Z,26.17
2022-09-28T14:48:49.379Z,26.46
2022-09-28T14:51:26.927Z,26.51
2022-09-28T14:54:03.180Z,26.54
2022-09-28T14:56:54.567Z,26.33
2022-09-28T14:59:36.477Z,26.31
2022-09-28T15:02:23.667Z,26.23
2022-09-28T15:05:14.628Z,26.08
2022-09-28T15:07:47.981Z,25.95
2022-09-28T15:10:27.525Z,25.75
2022-09-28T15:12:57.448Z,25.85
2022-09-28T15:15:55.112Z,25.91
2022-09-28T15:18:48.348Z,25.82
2022-09-28T15:21:17.278Z,25.92
2022-09-28T15:23:45.917Z,25.92
2022-09-28T15:26:27.837Z,25.98
2022-09-28T15:28:56.408Z,25.89
2022-09-28T15:31:30.597Z,25.93
2022-09-28T15:34:17.226Z,26.11
2022-09-28T15:36:48.837Z,25.71
2022-09-28T15:39:34.570Z,25.98
2022-09-28T15:42:05.300Z,26.61
2022-09-28T15:44:38.427Z,26.86
2022-09-28T15:47:14.377Z,26.92
2022-09-28T15:50:03.613Z,26.34
2022-09-28T15:52:37.846Z,26.07
2022-09-28T15:55:28.985Z,25.67
2022-09-28T15:58:23.066Z,25.88
2022-09-28T16:01:13.629Z,25.88
2022-09-28T16:03:41.906Z,25.63
2022-09-28T16:06:11.146Z,25.86
2022-09-28T16:08:45.216Z,26.03
2022-09-28T16:11:24.507Z,25.98
2022-09-28T16:14:09.056Z,25.61
2022-09-28T16:16:58.476Z,25.74
2022-09-28T16:19:36.517Z,25.61
2022-09-28T16:22:13.186Z,25.60
2022-09-28T16:24:41.406Z,25.14
2022-09-28T16:27:23.840Z,25.03
2022-09-28T16:30:15.986Z,24.68
2022-09-28T16:32:54.659Z,24.65
2022-09-28T16:35:25.941Z,24.50
2022-09-28T16:38:03.969Z,24.40
2022-09-28T16:40:33.863Z,24.42
2022-09-28T16:43:06.341Z,24.27
2022-09-28T16:45:35.529Z,24.22
2022-09-28T16:48:05.606Z,24.25
2022-09-28T16:50:33.778Z,24.35
2022-09-28T16:53:31.296Z,24.25
2022-09-28T16:56:01.066Z,24.10
2022-09-28T16:58:31.834Z,24.02
2022-09-28T17:01:01.786Z,24.00
2022-09-28T17:03:30.047Z,23.97
2022-09-28T17:05:58.096Z,24.02
2022-09-28T17:08:26.416Z,23.98
2022-09-28T17:13:47.457Z,23.77
2022-09-28T17:16:49.832Z,23.71
2022-09-28T17:19:23.655Z,23.70
2022-09-28T17:21:53.308Z,23.63
2022-09-28T17:24:21.791Z,23.52
2022-09-28T17:26:52.497Z,23.52
2022-09-28T17:29:20.975Z,23.36
2022-09-28T17:31:49.296Z,23.40
2022-09-28T17:34:17.593Z,23.40
2022-09-28T17:36:46.278Z,23.37
2022-09-28T17:39:17.837Z,23.20
2022-09-28T17:41:47.908Z,23.11
2022-09-28T17:44:16.699Z,23.13
2022-09-28T17:46:49.080Z,23.09
2022-09-28T17:49:19.158Z,23.13
2022-09-28T17:51:47.247Z,23.19
2022-09-28T17:54:17.100Z,22.93
2022-09-28T17:56:46.383Z,23.08
2022-09-28T17:59:18.904Z,23.08
2022-09-28T18:01:48.653Z,22.81
2022-09-28T18:04:33.730Z,22.98
2022-09-28T18:07:06.384Z,22.95
2022-09-28T18:09:34.643Z,22.78
2022-09-28T18:12:05.174Z,22.78
2022-09-28T18:14:36.201Z,22.84
2022-09-28T18:17:04.580Z,22.79
2022-09-28T18:19:32.731Z,22.81
2022-09-28T18:22:01.888Z,22.62
2022-09-28T18:24:30.055Z,22.79
2022-09-28T18:26:58.190Z,22.64
2022-09-28T18:29:29.911Z,22.56
2022-09-28T18:32:00.296Z,22.68
2022-09-28T18:34:28.562Z,22.57
2022-09-28T18:36:56.572Z,22.62
2022-09-28T18:39:24.511Z,22.71
2022-09-28T18:41:52.755Z,22.64
2022-09-28T18:44:20.747Z,22.74
2022-09-28T18:46:49.335Z,22.60
2022-09-28T18:49:17.915Z,22.69
2022-09-28T18:51:46.061Z,22.47
2022-09-28T18:54:14.372Z,22.57
2022-09-28T18:56:42.926Z,22.66
2022-09-28T18:59:12.286Z,22.44
2022-09-28T19:01:42.203Z,22.38
2022-09-28T19:04:11.725Z,22.28
2022-09-28T19:06:41.609Z,22.47
2022-09-28T19:09:10.071Z,22.20
2022-09-28T19:11:38.480Z,22.16
2022-09-28T19:14:06.630Z,22.17
2022-09-28T19:16:34.658Z,22.10
2022-09-28T19:19:03.486Z,22.35
2022-09-28T19:21:31.947Z,22.19
2022-09-28T19:24:04.517Z,21.85
2022-09-28T19:26:34.087Z,21.96
2022-09-28T19:29:03.281Z,21.98
2022-09-28T19:31:31.940Z,21.93
2022-09-28T19:34:00.462Z,22.24
2022-09-28T19:36:29.551Z,22.06
2022-09-28T19:39:03.778Z,21.91
2022-09-28T19:41:51.566Z,21.79
2022-09-28T19:44:28.562Z,21.93
2022-09-28T19:47:10.518Z,21.81
2022-09-28T19:49:41.443Z,21.83
2022-09-28T19:52:16.768Z,21.27
2022-09-28T19:54:56.936Z,21.17
2022-09-28T19:57:29.635Z,20.76
2022-09-28T20:00:02.048Z,21.10
2022-09-28T20:02:34.975Z,21.20
2022-09-28T20:05:03.801Z,21.39
2022-09-28T20:07:33.671Z,21.33
2022-09-28T20:10:02.483Z,21.34
2022-09-28T20:12:30.809Z,20.88
2022-09-28T20:14:59.629Z,20.95
2022-09-28T20:17:28.010Z,21.11
2022-09-28T20:19:56.171Z,21.10
2022-09-28T20:22:24.218Z,20.94
2022-09-28T20:24:52.570Z,21.04
2022-09-28T20:27:25.475Z,21.07
2022-09-28T20:29:55.498Z,21.21
2022-09-28T20:32:23.803Z,21.02
2022-09-28T20:34:51.979Z,20.50
2022-09-28T20:37:20.258Z,20.35
2022-09-28T20:39:49.378Z,20.26
2022-09-28T20:42:17.498Z,20.41
2022-09-28T20:44:45.971Z,20.53
2022-09-28T20:47:14.086Z,20.65
2022-09-28T20:49:42.237Z,20.60
2022-09-28T20:52:11.388Z,20.84
2022-09-28T20:54:39.458Z,20.70
2022-09-28T20:57:17.782Z,20.61
2022-09-28T20:59:52.301Z,20.79
2022-09-28T21:02:23.053Z,20.62
2022-09-28T21:04:51.797Z,20.74
2022-09-28T21:07:20.281Z,20.86
2022-09-28T21:09:48.732Z,20.95
2022-09-28T21:12:17.420Z,20.64
2022-09-28T21:14:45.519Z,20.65
2022-09-28T21:17:13.813Z,20.80
2022-09-28T21:19:42.196Z,20.61
2022-09-28T21:22:10.423Z,20.60
2022-09-28T21:24:39.019Z,20.53
2022-09-28T21:27:07.364Z,20.79
2022-09-28T21:29:35.419Z,20.70
2022-09-28T21:32:03.648Z,20.86
2022-09-28T21:34:33.062Z,20.84
2022-09-28T21:37:01.170Z,20.90
2022-09-28T21:39:29.311Z,21.10
2022-09-28T21:41:57.628Z,20.96
2022-09-28T21:44:25.739Z,20.71
2022-09-28T21:46:53.910Z,20.76
2022-09-28T21:49:22.789Z,20.75
2022-09-28T21:51:52.855Z,20.59
2022-09-28T21:54:21.629Z,20.82
2022-09-28T21:56:49.978Z,20.50
2022-09-28T21:59:18.169Z,20.32
2022-09-28T22:01:46.516Z,20.31
2022-09-28T22:04:15.119Z,20.42
2022-09-28T22:06:43.502Z,20.18
2022-09-28T22:09:11.761Z,20.15
2022-09-28T22:11:40.259Z,20.43
2022-09-28T22:14:10.782Z,20.37
2022-09-28T22:16:39.008Z,20.30
2022-09-28T22:19:07.527Z,20.28
2022-09-28T22:21:36.188Z,20.23
2022-09-28T22:24:07.373Z,20.06
2022-09-28T22:26:37.757Z,20.07
2022-09-28T22:29:09.081Z,19.81
2022-09-28T22:31:40.574Z,19.89
2022-09-28T22:34:10.122Z,19.91
2022-09-28T22:36:38.539Z,20.01
2022-09-28T22:39:06.687Z,20.18
2022-09-28T22:41:36.001Z,20.04
2022-09-28T22:44:04.703Z,19.82
2022-09-28T22:46:33.558Z,19.53
2022-09-28T22:49:02.398Z,19.52
2022-09-28T22:51:31.946Z,19.57
2022-09-28T22:54:00.215Z,19.72
2022-09-28T22:56:29.327Z,19.84
2022-09-28T22:58:58.238Z,20.05
2022-09-28T23:01:29.072Z,20.26
2022-09-28T23:03:58.481Z,20.31
2022-09-28T23:06:31.321Z,20.11
2022-09-28T23:08:59.788Z,19.98
2022-09-28T23:11:29.919Z,20.31
2022-09-28T23:13:59.541Z,20.18
2022-09-28T23:16:28.365Z,20.15
2022-09-28T23:18:56.759Z,20.38
2022-09-28T23:21:26.983Z,20.19
2022-09-28T23:24:01.775Z,20.04
2022-09-28T23:26:33.378Z,20.00
2022-09-28T23:29:01.329Z,19.83
2022-09-28T23:31:31.557Z,19.60
2022-09-28T23:34:06.829Z,19.60
2022-09-28T23:36:35.310Z,19.65
2022-09-28T23:39:04.349Z,19.74
2022-09-28T23:41:32.279Z,19.78
2022-09-28T23:44:00.329Z,19.91
2022-09-28T23:46:28.612Z,19.93
2022-09-28T23:48:56.805Z,19.91
2022-09-28T23:51:24.821Z,19.86
2022-09-28T23:53:53.311Z,19.76
2022-09-28T23:56:21.834Z,20.12
2022-09-28T23:58:49.981Z,20.22
